createdAt,value
2023-03-13T00:00:31.606Z,28.67
2023-03-13T00:03:02.883Z,27.27
2023-03-13T00:05:35.854Z,23.27
2023-03-13T00:08:07.150Z,25.07
2023-03-13T00:10:39.994Z,25.23
2023-03-13T00:13:11.315Z,34.77
2023-03-13T00:15:42.657Z,18.77
2023-03-13T00:18:13.987Z,27.40
2023-03-13T00:20:48.721Z,22.90
2023-03-13T00:23:19.989Z,33.97
2023-03-13T00:26:03.196Z,24.37
2023-03-13T00:28:36.146Z,23.63
2023-03-13T00:31:17.401Z,25.87
2023-03-13T00:33:52.012Z,35.80
2023-03-13T00:36:25.839Z,32.87
2023-03-13T00:38:57.858Z,27.50
2023-03-13T00:41:31.911Z,29.07
2023-03-13T00:44:03.638Z,24.00
2023-03-13T00:46:35.834Z,22.87
2023-03-13T00:49:07.150Z,25.00
2023-03-13T00:51:38.512Z,25.83
2023-03-13T00:54:09.772Z,27.23
2023-03-13T00:56:41.091Z,24.20
2023-03-13T00:59:12.384Z,28.23
2023-03-13T01:01:43.748Z,26.20
2023-03-13T01:04:15.045Z,31.73
2023-03-13T01:06:46.339Z,24.23
2023-03-13T01:09:18.049Z,21.70
2023-03-13T01:11:49.352Z,30.13
2023-03-13T01:14:20.664Z,25.83
2023-03-13T01:16:51.955Z,25.07
2023-03-13T01:19:23.254Z,26.67
2023-03-13T01:21:54.559Z,31.60
2023-03-13T01:24:25.880Z,26.57
2023-03-13T01:26:58.200Z,30.23
2023-03-13T01:29:29.474Z,22.17
2023-03-13T01:32:00.852Z,27.43
2023-03-13T01:34:32.189Z,25.67
2023-03-13T01:37:04.594Z,30.03
2023-03-13T01:39:35.859Z,27.87
2023-03-13T01:42:07.315Z,28.03
2023-03-13T01:44:53.286Z,30.87
2023-03-13T01:47:24.578Z,28.00
2023-03-13T01:49:55.978Z,24.17
2023-03-13T01:52:31.083Z,22.33
2023-03-13T01:55:11.726Z,28.63
2023-03-13T01:57:50.651Z,25.83
2023-03-13T02:00:29.570Z,28.70
2023-03-13T02:03:15.008Z,28.83
2023-03-13T02:05:49.438Z,25.37
2023-03-13T02:08:23.648Z,22.73
2023-03-13T02:11:07.613Z,28.33
2023-03-13T02:13:38.929Z,20.77
2023-03-13T02:16:11.436Z,20.57
2023-03-13T02:18:42.899Z,20.30
2023-03-13T02:21:25.603Z,27.23
2023-03-13T02:24:13.740Z,24.70
2023-03-13T02:26:45.033Z,25.30
2023-03-13T02:29:18.377Z,24.43
2023-03-13T02:31:50.794Z,17.73
2023-03-13T02:34:28.508Z,22.13
2023-03-13T02:37:01.631Z,32.20
2023-03-13T02:39:34.534Z,28.50
2023-03-13T02:42:13.569Z,38.30
2023-03-13T02:44:47.484Z,22.30
2023-03-13T02:47:20.911Z,29.53
2023-03-13T02:49:52.193Z,17.63
2023-03-13T02:52:28.040Z,23.87
2023-03-13T02:55:04.225Z,28.17
2023-03-13T02:57:35.600Z,27.30
2023-03-13T03:00:12.392Z,20.63
2023-03-13T03:02:44.516Z,19.33
2023-03-13T03:05:15.870Z,23.47
2023-03-13T03:07:47.137Z,18.60
2023-03-13T03:10:19.292Z,22.70
2023-03-13T03:12:50.603Z,24.47
2023-03-13T03:15:22.588Z,20.37
2023-03-13T03:17:53.914Z,23.37
2023-03-13T03:20:26.196Z,20.73
2023-03-13T03:22:57.479Z,29.23
2023-03-13T03:25:28.793Z,23.50
2023-03-13T03:28:00.096Z,19.77
2023-03-13T03:30:31.367Z,28.63
2023-03-13T03:33:04.095Z,24.83
2023-03-13T03:35:38.473Z,17.03
2023-03-13T03:38:09.861Z,22.27
2023-03-13T03:40:41.142Z,20.77
2023-03-13T03:43:12.442Z,21.97
2023-03-13T03:45:43.752Z,16.60
2023-03-13T03:48:15.054Z,24.23
2023-03-13T03:50:46.344Z,27.53
2023-03-13T03:53:17.612Z,17.97
2023-03-13T03:55:49.439Z,20.77
2023-03-13T03:58:20.797Z,19.20
2023-03-13T04:00:52.230Z,21.90
2023-03-13T04:03:24.276Z,20.70
2023-03-13T04:05:55.627Z,22.80
2023-03-13T04:08:27.088Z,17.30
2023-03-13T04:11:01.565Z,26.27
2023-03-13T04:13:32.963Z,26.70
2023-03-13T04:16:10.890Z,22.50
2023-03-13T04:18:42.223Z,26.30
2023-03-13T04:21:13.548Z,17.43
2023-03-13T04:23:44.810Z,25.50
2023-03-13T04:26:16.088Z,22.13
2023-03-13T04:28:47.371Z,20.67
2023-03-13T04:31:18.818Z,21.20
2023-03-13T04:33:50.719Z,15.83
2023-03-13T04:36:22.179Z,22.30
2023-03-13T04:38:53.548Z,25.73
2023-03-13T04:41:24.829Z,26.13
2023-03-13T04:43:56.104Z,15.80
2023-03-13T04:46:27.480Z,18.77
2023-03-13T04:48:58.868Z,25.07
2023-03-13T04:51:30.224Z,15.67
2023-03-13T04:54:01.552Z,18.90
2023-03-13T04:56:43.166Z,19.10
2023-03-13T04:59:15.826Z,31.17
2023-03-13T05:01:47.189Z,19.63
2023-03-13T05:04:18.532Z,23.40
2023-03-13T05:06:49.840Z,20.10
2023-03-13T05:09:21.111Z,20.47
2023-03-13T05:11:52.372Z,21.50
2023-03-13T05:14:23.689Z,18.00
2023-03-13T05:16:55.080Z,14.40
2023-03-13T05:19:26.400Z,19.10
2023-03-13T05:21:57.738Z,20.20
2023-03-13T05:24:29.024Z,17.43
2023-03-13T05:27:00.298Z,16.93
2023-03-13T05:29:31.744Z,18.20
2023-03-13T05:32:03.176Z,12.43
2023-03-13T05:34:34.496Z,15.90
2023-03-13T05:37:05.822Z,13.87
2023-03-13T05:39:37.223Z,13.77
2023-03-13T05:42:08.492Z,11.37
2023-03-13T05:44:39.925Z,14.60
2023-03-13T05:47:11.294Z,13.13
2023-03-13T05:49:42.617Z,9.33
2023-03-13T05:52:13.949Z,13.17
2023-03-13T05:54:45.234Z,13.73
2023-03-13T05:57:16.640Z,8.43
2023-03-13T05:59:47.916Z,9.53
2023-03-13T06:02:20.666Z,8.53
2023-03-13T06:04:52.240Z,12.37
2023-03-13T06:07:23.604Z,10.67
2023-03-13T06:09:54.861Z,14.87
2023-03-13T06:12:26.202Z,9.13
2023-03-13T06:14:57.510Z,6.80
2023-03-13T06:17:28.936Z,7.07
2023-03-13T06:20:00.210Z,7.40
2023-03-13T06:22:31.788Z,6.90
2023-03-13T06:25:03.354Z,10.13
2023-03-13T06:27:35.451Z,11.37
2023-03-13T06:30:08.184Z,7.80
2023-03-13T06:32:39.588Z,7.73
2023-03-13T06:35:11.014Z,8.83
2023-03-13T06:37:42.296Z,6.70
2023-03-13T06:40:13.863Z,5.40
2023-03-13T06:42:45.119Z,9.60
2023-03-13T06:45:16.564Z,6.13
2023-03-13T06:47:47.942Z,6.60
2023-03-13T06:50:19.311Z,6.83
2023-03-13T06:52:50.593Z,4.53
2023-03-13T06:55:21.917Z,8.97
2023-03-13T06:57:53.341Z,7.47
2023-03-13T07:00:24.965Z,7.57
2023-03-13T07:02:56.286Z,9.63
2023-03-13T07:05:27.643Z,6.97
2023-03-13T07:07:59.569Z,6.97
2023-03-13T07:10:31.468Z,9.60
2023-03-13T07:13:02.832Z,6.93
2023-03-13T07:15:34.109Z,6.53
2023-03-13T07:18:05.440Z,8.87
2023-03-13T07:20:36.809Z,6.33
2023-03-13T07:23:08.091Z,7.47
2023-03-13T07:25:39.749Z,6.73
2023-03-13T07:28:11.121Z,9.57
2023-03-13T07:30:42.387Z,8.70
2023-03-13T07:33:13.657Z,6.40
2023-03-13T07:35:52.330Z,10.37
2023-03-13T07:38:23.605Z,9.63
2023-03-13T07:40:57.088Z,6.07
2023-03-13T07:43:29.402Z,8.33
2023-03-13T07:46:03.300Z,5.40
2023-03-13T07:48:42.421Z,9.03
2023-03-13T07:51:17.354Z,8.43
2023-03-13T07:53:50.365Z,5.87
2023-03-13T07:56:23.627Z,7.60
2023-03-13T07:58:54.888Z,5.67
2023-03-13T08:01:30.470Z,6.67
2023-03-13T08:04:02.392Z,8.93
2023-03-13T08:06:37.701Z,7.70
2023-03-13T08:09:09.873Z,5.55
2023-03-13T08:11:41.371Z,7.87
2023-03-13T08:14:13.083Z,7.00
2023-03-13T08:16:44.467Z,9.40
2023-03-13T08:19:15.820Z,10.37
2023-03-13T08:21:47.076Z,7.63
2023-03-13T08:24:18.393Z,6.30
2023-03-13T08:26:49.711Z,8.37
2023-03-13T08:29:21.025Z,8.63
2023-03-13T08:31:52.666Z,10.33
2023-03-13T08:34:23.991Z,9.40
2023-03-13T08:36:56.840Z,7.83
2023-03-13T08:39:28.290Z,8.50
2023-03-13T08:41:59.548Z,9.00
2023-03-13T08:44:30.926Z,9.00
2023-03-13T08:47:02.326Z,7.20
2023-03-13T08:49:33.792Z,8.13
2023-03-13T08:52:06.032Z,8.37
2023-03-13T08:54:37.301Z,7.03
2023-03-13T08:57:08.600Z,8.03
2023-03-13T08:59:39.868Z,8.40
2023-03-13T09:02:11.331Z,9.63
2023-03-13T09:04:42.633Z,9.70
2023-03-13T09:07:14.160Z,9.20
2023-03-13T09:09:45.494Z,7.90
2023-03-13T09:12:29.896Z,7.93
2023-03-13T09:15:01.897Z,7.17
2023-03-13T09:17:33.275Z,8.13
2023-03-13T09:20:05.152Z,8.10
2023-03-13T09:22:36.424Z,9.50
2023-03-13T09:25:08.084Z,9.93
2023-03-13T09:27:39.914Z,8.70
2023-03-13T09:30:11.795Z,9.97
2023-03-13T09:32:43.130Z,9.13
2023-03-13T09:35:14.559Z,10.83
2023-03-13T09:37:45.990Z,12.33
2023-03-13T09:40:20.586Z,8.90
2023-03-13T09:43:00.471Z,9.83
2023-03-13T09:45:37.219Z,10.07
2023-03-13T09:48:35.940Z,8.63
2023-03-13T09:51:16.510Z,9.67
2023-03-13T09:53:56.575Z,10.80
2023-03-13T09:56:56.607Z,7.57
2023-03-13T09:59:43.445Z,9.57
2023-03-13T10:02:28.366Z,8.50
2023-03-13T10:05:09.550Z,9.33
2023-03-13T10:07:41.110Z,8.17
2023-03-13T10:10:19.157Z,7.87
2023-03-13T10:12:56.102Z,5.17
2023-03-13T10:15:49.038Z,5.90
2023-03-13T10:18:23.331Z,6.53
2023-03-13T10:21:01.652Z,7.47
2023-03-13T10:23:40.606Z,7.03
2023-03-13T10:26:26.698Z,6.40
2023-03-13T10:29:24.197Z,6.78
2023-03-13T10:32:04.223Z,5.93
2023-03-13T10:34:58.099Z,7.77
2023-03-13T10:37:31.891Z,7.50
2023-03-13T10:40:14.353Z,7.53
2023-03-13T10:42:46.184Z,4.93
2023-03-13T10:45:23.977Z,7.77
2023-03-13T10:48:01.695Z,5.17
2023-03-13T10:50:34.892Z,6.90
2023-03-13T10:53:30.557Z,7.10
2023-03-13T10:56:19.292Z,7.43
2023-03-13T10:58:53.145Z,7.57
2023-03-13T11:01:33.901Z,6.73
2023-03-13T11:04:29.831Z,4.57
2023-03-13T11:07:25.916Z,3.87
2023-03-13T11:09:59.314Z,9.63
2023-03-13T11:12:34.726Z,5.47
2023-03-13T11:15:15.256Z,7.50
2023-03-13T11:18:00.121Z,5.27
2023-03-13T11:20:43.461Z,7.07
2023-03-13T11:23:22.697Z,5.97
2023-03-13T11:26:06.686Z,9.60
2023-03-13T11:28:50.524Z,6.13
2023-03-13T11:31:28.828Z,6.00
2023-03-13T11:34:06.255Z,7.20
2023-03-13T11:36:52.482Z,3.20
2023-03-13T11:39:51.109Z,5.95
2023-03-13T11:42:57.074Z,4.17
2023-03-13T11:46:06.760Z,4.90
2023-03-13T11:48:40.780Z,3.53
2023-03-13T11:51:20.942Z,3.10
2023-03-13T11:54:10.723Z,6.83
2023-03-13T11:56:46.778Z,2.03
2023-03-13T12:02:03.920Z,2.23
2023-03-13T12:04:42.005Z,3.37
2023-03-13T12:07:34.175Z,4.40
2023-03-13T12:10:08.162Z,3.73
2023-03-13T12:12:45.120Z,2.53
2023-03-13T12:15:31.673Z,3.10
2023-03-13T12:20:49.914Z,3.17
2023-03-13T12:23:35.903Z,2.57
2023-03-13T12:26:19.157Z,6.50
2023-03-13T12:29:36.086Z,2.03
2023-03-13T12:32:27.251Z,2.20
2023-03-13T12:35:08.330Z,3.50
2023-03-13T12:37:47.514Z,4.60
2023-03-13T12:40:37.394Z,4.33
2023-03-13T12:43:18.913Z,3.58
2023-03-13T12:45:59.790Z,4.15
2023-03-13T12:48:43.856Z,6.72
2023-03-13T12:51:40.239Z,4.85
2023-03-13T12:54:45.973Z,2.00
2023-03-13T12:57:55.200Z,3.67
2023-03-13T13:00:30.175Z,2.08
2023-03-13T13:03:18.422Z,5.65
2023-03-13T13:06:05.906Z,4.05
2023-03-13T13:08:43.285Z,2.47
2023-03-13T13:11:39.333Z,1.77
2023-03-13T13:14:19.854Z,4.15
2023-03-13T13:16:57.985Z,2.60
2023-03-13T13:19:41.149Z,2.20
2023-03-13T13:22:36.460Z,2.88
2023-03-13T13:25:10.492Z,3.03
2023-03-13T13:27:41.732Z,2.83
2023-03-13T13:30:18.793Z,3.50
2023-03-13T13:32:52.489Z,2.58
2023-03-13T13:35:33.081Z,5.20
2023-03-13T13:38:19.762Z,2.50
2023-03-13T13:41:09.426Z,3.58
2023-03-13T13:43:45.880Z,2.88
2023-03-13T13:46:29.151Z,2.50
2023-03-13T13:49:08.192Z,2.72
2023-03-13T13:51:40.943Z,2.35
2023-03-13T13:54:18.262Z,5.22
2023-03-13T13:57:01.427Z,10.15
2023-03-13T13:59:41.065Z,2.38
2023-03-13T14:02:17.363Z,3.33
2023-03-13T14:04:53.796Z,3.85
2023-03-13T14:07:37.144Z,4.13
2023-03-13T14:10:30.222Z,3.40
2023-03-13T14:13:05.384Z,4.80
2023-03-13T14:15:36.811Z,2.65
2023-03-13T14:18:22.912Z,3.80
2023-03-13T14:21:00.639Z,10.20
2023-03-13T14:23:34.824Z,1.95
2023-03-13T14:26:21.883Z,3.40
2023-03-13T14:28:54.687Z,5.80
2023-03-13T14:31:31.751Z,4.03
2023-03-13T14:34:05.656Z,3.15
2023-03-13T14:36:50.693Z,4.32
2023-03-13T14:39:37.509Z,1.50
2023-03-13T14:42:17.054Z,1.85
2023-03-13T14:44:50.048Z,1.52
2023-03-13T14:47:21.412Z,3.72
2023-03-13T14:50:01.387Z,3.05
2023-03-13T14:52:33.942Z,3.88
2023-03-13T14:55:27.156Z,4.00
2023-03-13T14:58:03.567Z,2.50
2023-03-13T15:00:43.323Z,1.05
2023-03-13T15:03:18.775Z,4.68
2023-03-13T15:06:07.459Z,3.00
2023-03-13T15:08:42.483Z,3.13
2023-03-13T15:11:20.221Z,2.37
2023-03-13T15:13:51.702Z,6.68
2023-03-13T15:16:24.607Z,1.38
2023-03-13T15:18:56.902Z,3.25
2023-03-13T15:21:33.819Z,4.88
2023-03-13T15:24:15.057Z,1.70
2023-03-13T15:26:49.457Z,1.90
2023-03-13T15:29:20.870Z,5.03
2023-03-13T15:31:52.270Z,3.28
2023-03-13T15:34:25.274Z,10.60
2023-03-13T15:36:56.550Z,2.13
2023-03-13T15:39:29.655Z,1.13
2023-03-13T15:42:01.075Z,2.03
2023-03-13T15:44:32.451Z,1.55
2023-03-13T15:47:04.013Z,4.75
2023-03-13T15:49:35.350Z,1.33
2023-03-13T15:52:17.479Z,2.05
2023-03-13T15:54:50.303Z,4.88
2023-03-13T15:57:25.348Z,2.70
2023-03-13T15:59:56.651Z,1.97
2023-03-13T16:02:27.925Z,3.00
2023-03-13T16:04:59.310Z,0.85
2023-03-13T16:07:30.713Z,2.95
2023-03-13T16:10:02.092Z,1.77
2023-03-13T16:12:33.413Z,1.85
2023-03-13T16:15:05.224Z,3.13
2023-03-13T16:17:36.815Z,1.55
2023-03-13T16:20:18.951Z,3.42
2023-03-13T16:22:52.980Z,1.50
2023-03-13T16:25:25.481Z,2.45
2023-03-13T16:27:57.228Z,2.08
2023-03-13T16:30:31.525Z,1.70
2023-03-13T16:33:03.041Z,3.13
2023-03-13T16:35:34.875Z,1.60
2023-03-13T16:38:08.386Z,2.22
2023-03-13T16:40:39.776Z,4.53
2023-03-13T16:43:12.630Z,3.67
2023-03-13T16:45:43.923Z,2.30
2023-03-13T16:48:19.053Z,2.90
2023-03-13T16:50:50.324Z,2.45
2023-03-13T16:53:21.690Z,2.55
2023-03-13T16:55:53.444Z,1.17
2023-03-13T16:58:24.708Z,2.05
2023-03-13T17:01:05.298Z,2.67
2023-03-13T17:03:37.294Z,3.30
2023-03-13T17:06:42.365Z,3.42
2023-03-13T17:09:16.827Z,0.93
2023-03-13T17:11:48.206Z,1.85
2023-03-13T17:14:19.528Z,3.35
2023-03-13T17:16:50.938Z,2.27
2023-03-13T17:19:22.433Z,4.13
2023-03-13T17:21:53.788Z,2.77
2023-03-13T17:24:25.299Z,2.00
2023-03-13T17:26:56.688Z,2.67
2023-03-13T17:29:28.038Z,2.37
2023-03-13T17:31:59.347Z,4.23
2023-03-13T17:34:31.232Z,1.50
2023-03-13T17:37:04.764Z,4.00
2023-03-13T17:39:37.317Z,3.80
2023-03-13T17:42:08.664Z,4.30
2023-03-13T17:44:41.155Z,3.73
2023-03-13T17:47:15.471Z,2.13
2023-03-13T17:49:46.789Z,3.63
2023-03-13T17:52:18.106Z,5.23
2023-03-13T17:54:49.480Z,2.40
2023-03-13T17:57:22.443Z,1.97
2023-03-13T17:59:53.751Z,5.63
2023-03-13T18:02:25.460Z,2.70
2023-03-13T18:04:56.853Z,2.37
2023-03-13T18:07:29.521Z,2.17
2023-03-13T18:10:00.895Z,1.33
2023-03-13T18:12:32.183Z,1.33
2023-03-13T18:15:03.759Z,2.13
2023-03-13T18:17:35.084Z,2.60
2023-03-13T18:20:14.367Z,2.00
2023-03-13T18:22:46.671Z,1.00
2023-03-13T18:25:18.035Z,1.87
2023-03-13T18:27:49.379Z,1.97
2023-03-13T18:30:23.830Z,3.00
2023-03-13T18:32:55.129Z,1.80
2023-03-13T18:35:26.458Z,3.73
2023-03-13T18:37:57.835Z,2.20
2023-03-13T18:40:29.212Z,3.13
2023-03-13T18:43:00.563Z,2.70
2023-03-13T18:45:31.885Z,3.30
2023-03-13T18:48:03.336Z,3.00
2023-03-13T18:50:34.682Z,2.20
2023-03-13T18:53:06.092Z,1.97
2023-03-13T18:55:37.418Z,4.60
2023-03-13T18:58:11.668Z,4.50
2023-03-13T19:00:43.033Z,2.93
2023-03-13T19:03:14.537Z,1.37
2023-03-13T19:05:49.923Z,1.73
2023-03-13T19:08:21.281Z,3.95
2023-03-13T19:10:52.694Z,2.50
2023-03-13T19:13:24.003Z,2.03
2023-03-13T19:15:55.497Z,2.43
2023-03-13T19:18:26.804Z,1.90
2023-03-13T19:20:58.586Z,2.03
2023-03-13T19:23:29.836Z,2.70
2023-03-13T19:26:01.149Z,2.73
2023-03-13T19:28:32.458Z,7.00
2023-03-13T19:31:03.908Z,3.70
2023-03-13T19:33:35.217Z,2.70
2023-03-13T19:36:17.220Z,1.43
2023-03-13T19:38:49.054Z,2.23
2023-03-13T19:41:20.347Z,1.80
2023-03-13T19:43:51.635Z,1.40
2023-03-13T19:46:26.065Z,2.23
2023-03-13T19:48:59.616Z,4.70
2023-03-13T19:51:31.316Z,4.37
2023-03-13T19:54:02.790Z,5.67
2023-03-13T19:56:34.251Z,4.27
2023-03-13T19:59:10.168Z,4.50
2023-03-13T20:01:42.148Z,3.58
2023-03-13T20:04:13.840Z,5.23
2023-03-13T20:06:45.681Z,3.87
2023-03-13T20:09:18.163Z,4.60
2023-03-13T20:11:49.675Z,2.70
2023-03-13T20:14:21.112Z,4.17
2023-03-13T20:16:52.451Z,4.90
2023-03-13T20:19:26.067Z,3.03
2023-03-13T20:22:03.307Z,3.77
2023-03-13T20:24:34.601Z,3.40
2023-03-13T20:27:05.953Z,8.07
2023-03-13T20:29:37.223Z,9.07
2023-03-13T20:32:08.526Z,6.70
2023-03-13T20:34:39.873Z,5.57
2023-03-13T20:37:12.445Z,2.77
2023-03-13T20:39:43.746Z,5.97
2023-03-13T20:42:16.386Z,5.13
2023-03-13T20:44:47.676Z,9.73
2023-03-13T20:47:19.461Z,3.77
2023-03-13T20:49:50.754Z,3.90
2023-03-13T20:52:22.024Z,3.90
2023-03-13T20:54:53.312Z,5.63
2023-03-13T20:57:25.628Z,3.50
2023-03-13T20:59:56.948Z,2.77
2023-03-13T21:02:29.259Z,3.03
2023-03-13T21:05:00.599Z,2.70
2023-03-13T21:07:32.277Z,2.57
2023-03-13T21:10:04.035Z,2.33
2023-03-13T21:12:36.276Z,4.40
2023-03-13T21:15:08.922Z,3.43
2023-03-13T21:17:41.458Z,6.40
2023-03-13T21:20:13.108Z,4.83
2023-03-13T21:22:44.428Z,2.50
2023-03-13T21:25:17.439Z,3.50
2023-03-13T21:27:48.787Z,2.60
2023-03-13T21:30:21.569Z,7.63
2023-03-13T21:32:54.261Z,4.90
2023-03-13T21:35:25.891Z,3.23
2023-03-13T21:37:58.224Z,4.43
2023-03-13T21:40:29.531Z,4.43
2023-03-13T21:43:00.871Z,4.07
2023-03-13T21:45:32.133Z,6.60
2023-03-13T21:48:03.692Z,4.13
2023-03-13T21:50:35.009Z,6.90
2023-03-13T21:53:06.302Z,4.47
2023-03-13T21:55:39.803Z,6.13
2023-03-13T21:58:11.082Z,6.40
2023-03-13T22:00:42.753Z,4.10
2023-03-13T22:03:14.120Z,2.53
2023-03-13T22:05:45.575Z,3.53
2023-03-13T22:08:16.933Z,4.57
2023-03-13T22:10:49.664Z,4.27
2023-03-13T22:13:21.200Z,3.63
2023-03-13T22:15:52.720Z,3.13
2023-03-13T22:18:24.150Z,8.60
2023-03-13T22:20:59.579Z,7.27
2023-03-13T22:23:30.929Z,4.13
2023-03-13T22:26:02.281Z,4.97
2023-03-13T22:28:33.546Z,3.23
2023-03-13T22:31:06.543Z,3.73
2023-03-13T22:33:37.967Z,6.03
2023-03-13T22:36:10.285Z,4.90
2023-03-13T22:38:41.663Z,3.77
2023-03-13T22:41:14.015Z,3.33
2023-03-13T22:43:45.282Z,2.27
2023-03-13T22:46:16.621Z,6.23
2023-03-13T22:48:47.890Z,4.43
2023-03-13T22:51:19.373Z,3.83
2023-03-13T22:53:50.642Z,5.10
2023-03-13T22:56:21.977Z,3.33
2023-03-13T22:58:53.268Z,4.13
2023-03-13T23:01:24.682Z,4.23
2023-03-13T23:03:56.001Z,2.57
2023-03-13T23:06:27.327Z,3.67
2023-03-13T23:08:58.640Z,4.73
2023-03-13T23:11:30.130Z,6.00
2023-03-13T23:14:01.750Z,9.63
2023-03-13T23:16:33.106Z,3.27
2023-03-13T23:19:04.461Z,4.23
2023-03-13T23:21:35.730Z,4.57
2023-03-13T23:24:07.404Z,5.63
2023-03-13T23:26:38.791Z,3.20
2023-03-13T23:29:10.110Z,3.90
2023-03-13T23:31:41.374Z,3.63
2023-03-13T23:34:13.257Z,4.13
2023-03-13T23:36:44.530Z,5.50
2023-03-13T23:39:15.882Z,5.33
2023-03-13T23:41:47.172Z,7.80
2023-03-13T23:44:18.485Z,7.20
2023-03-13T23:46:49.850Z,8.03
2023-03-13T23:49:21.118Z,3.77
2023-03-13T23:51:52.429Z,5.50
2023-03-13T23:54:23.746Z,4.50
2023-03-13T23:56:55.022Z,3.63
2023-03-13T23:59:26.408Z,7.43
